createdAt,value
2018-12-02T00:08:40.541Z,5.97
2018-12-02T00:18:43.895Z,6.57
2018-12-02T00:28:47.214Z,5.57
2018-12-02T00:38:50.850Z,5.93
2018-12-02T00:48:54.240Z,5.43
2018-12-02T00:58:57.559Z,10.17
2018-12-02T01:09:00.912Z,7.13
2018-12-02T01:19:04.251Z,6.40
2018-12-02T01:29:07.583Z,6.43
2018-12-02T01:39:10.935Z,6.50
2018-12-02T01:49:14.287Z,5.17
2018-12-02T01:59:17.634Z,5.63
2018-12-02T02:09:20.966Z,5.47
2018-12-02T02:19:24.315Z,4.80
2018-12-02T02:29:27.650Z,6.47
2018-12-02T02:39:31.540Z,5.70
2018-12-02T02:49:34.979Z,5.93
2018-12-02T02:59:38.334Z,5.20
2018-12-02T03:09:41.660Z,5.33
2018-12-02T03:19:44.987Z,4.90
2018-12-02T03:29:48.327Z,3.43
2018-12-02T03:39:51.693Z,4.30
2018-12-02T03:49:55.033Z,4.87
2018-12-02T03:59:58.387Z,4.47
2018-12-02T04:10:01.733Z,5.10
2018-12-02T04:20:06.763Z,5.07
2018-12-02T04:30:13.134Z,5.50
2018-12-02T04:40:16.340Z,4.93
2018-12-02T04:50:20.688Z,4.87
2018-12-02T05:00:23.955Z,4.97
2018-12-02T05:10:27.319Z,4.40
2018-12-02T05:20:30.658Z,4.20
2018-12-02T05:30:33.996Z,4.60
2018-12-02T05:40:37.346Z,4.50
2018-12-02T05:50:40.690Z,4.33
2018-12-02T06:00:44.042Z,4.17
2018-12-02T06:10:47.411Z,3.90
2018-12-02T06:20:50.707Z,4.80
2018-12-02T06:30:54.051Z,3.47
2018-12-02T06:40:57.391Z,3.50
2018-12-02T06:51:00.760Z,3.30
2018-12-02T07:01:11.599Z,3.27
2018-12-02T07:11:15.111Z,3.50
2018-12-02T07:21:19.509Z,3.23
2018-12-02T07:31:23.033Z,3.50
2018-12-02T07:41:26.646Z,2.90
2018-12-02T07:51:30.039Z,3.53
2018-12-02T08:01:33.675Z,3.07
2018-12-02T08:11:37.019Z,2.70
2018-12-02T08:21:40.386Z,2.90
2018-12-02T08:31:43.859Z,2.20
2018-12-02T08:41:47.460Z,2.57
2018-12-02T08:51:50.731Z,2.60
2018-12-02T09:01:54.055Z,2.70
2018-12-02T09:11:57.707Z,1.90
2018-12-02T09:22:01.081Z,2.20
2018-12-02T09:32:05.196Z,2.20
2018-12-02T09:42:08.031Z,1.70
2018-12-02T09:52:11.391Z,2.10
2018-12-02T10:02:14.738Z,2.30
2018-12-02T10:12:18.097Z,1.83
2018-12-02T10:22:21.427Z,1.47
2018-12-02T10:32:24.802Z,2.00
2018-12-02T10:42:28.118Z,1.60
2018-12-02T10:52:31.494Z,1.80
2018-12-02T11:02:34.783Z,1.70
2018-12-02T11:12:38.164Z,1.57
2018-12-02T11:22:41.466Z,1.40
2018-12-02T11:32:45.939Z,2.50
2018-12-02T11:42:50.392Z,1.40
2018-12-02T11:52:53.685Z,1.30
2018-12-02T12:02:58.126Z,1.13
2018-12-02T12:13:01.638Z,1.20
2018-12-02T12:23:05.305Z,1.13
2018-12-02T12:33:09.678Z,0.90
2018-12-02T12:43:21.472Z,1.20
2018-12-02T12:53:24.860Z,1.13
2018-12-02T13:03:28.107Z,1.17
2018-12-02T13:13:31.413Z,1.20
2018-12-02T13:23:34.633Z,1.30
2018-12-02T13:33:37.918Z,1.50
2018-12-02T13:43:41.173Z,1.33
2018-12-02T13:53:49.779Z,1.50
2018-12-02T14:03:53.035Z,1.30
2018-12-02T14:13:56.279Z,1.40
2018-12-02T14:23:59.502Z,1.40
2018-12-02T14:34:02.801Z,1.40
2018-12-02T14:44:06.976Z,1.10
2018-12-02T14:54:10.439Z,1.43
2018-12-02T15:04:13.662Z,1.40
2018-12-02T15:14:17.059Z,1.37
2018-12-02T15:24:20.286Z,1.90
2018-12-02T15:34:23.555Z,1.60
2018-12-02T15:44:26.846Z,1.50
2018-12-02T15:54:30.136Z,1.47
2018-12-02T16:04:33.501Z,1.40
2018-12-02T16:14:37.327Z,1.57
2018-12-02T16:24:40.615Z,1.80
2018-12-02T16:34:44.013Z,2.20
2018-12-02T16:44:47.307Z,2.53
2018-12-02T16:54:50.644Z,2.70
2018-12-02T17:04:54.631Z,2.73
2018-12-02T17:14:58.022Z,3.00
2018-12-02T17:25:01.296Z,3.10
2018-12-02T17:35:05.018Z,2.83
2018-12-02T17:45:09.677Z,2.83
2018-12-02T17:55:13.001Z,2.87
2018-12-02T18:05:18.379Z,2.70
2018-12-02T18:15:21.683Z,2.47
2018-12-02T18:25:24.968Z,2.40
2018-12-02T18:36:33.976Z,2.10
2018-12-02T18:46:38.503Z,2.30
2018-12-02T18:56:42.321Z,3.40
2018-12-02T19:06:45.649Z,2.77
2018-12-02T19:16:49.002Z,2.60
2018-12-02T19:26:52.282Z,2.40
2018-12-02T19:37:00.330Z,2.23
2018-12-02T19:47:03.679Z,1.90
2018-12-02T19:57:07.133Z,2.10
2018-12-02T20:07:10.402Z,2.00
2018-12-02T20:17:13.691Z,2.33
2018-12-02T20:27:17.060Z,3.83
2018-12-02T20:37:20.410Z,1.60
2018-12-02T20:47:23.701Z,1.90
2018-12-02T20:57:27.955Z,1.30
2018-12-02T21:07:31.327Z,1.20
2018-12-02T21:17:34.648Z,2.00
2018-12-02T21:27:37.985Z,1.30
2018-12-02T21:37:41.273Z,1.50
2018-12-02T21:47:47.662Z,1.73
2018-12-02T21:57:51.032Z,1.87
2018-12-02T22:07:54.336Z,1.87
2018-12-02T22:17:57.691Z,1.13
2018-12-02T22:28:01.053Z,1.70
2018-12-02T22:38:04.376Z,1.77
2018-12-02T22:48:07.711Z,1.30
2018-12-02T22:58:11.149Z,1.10
2018-12-02T23:08:14.403Z,0.90
2018-12-02T23:18:24.123Z,1.00
2018-12-02T23:28:27.408Z,0.90
2018-12-02T23:38:30.635Z,1.00
2018-12-02T23:48:33.863Z,1.10
2018-12-02T23:58:37.103Z,0.90
